sensor_id;sensor_type;location;lat;lon;timestamp;P1;durP1;ratioP1;P2;durP2;ratioP2
25905;SDS011;13713;52.552;13.204;2024-03-08T00:00:07;52.33;;;31.60;;
25905;SDS011;13713;52.552;13.204;2024-03-08T00:02:39;56.15;;;32.80;;
25905;SDS011;13713;52.552;13.204;2024-03-08T00:05:06;54.67;;;33.10;;
25905;SDS011;13713;52.552;13.204;2024-03-08T00:07:37;55.72;;;32.45;;
25905;SDS011;13713;52.552;13.204;2024-03-08T00:10:04;53.67;;;31.15;;
25905;SDS011;13713;52.552;13.204;2024-03-08T00:12:30;53.05;;;32.58;;
25905;SDS011;13713;52.552;13.204;2024-03-08T00:14:56;52.13;;;31.02;;
25905;SDS011;13713;52.552;13.204;2024-03-08T00:17:22;52.80;;;30.80;;
25905;SDS011;13713;52.552;13.204;2024-03-08T00:19:48;56.97;;;32.15;;
25905;SDS011;13713;52.552;13.204;2024-03-08T00:22:17;53.53;;;31.92;;
25905;SDS011;13713;52.552;13.204;2024-03-08T00:24:43;53.80;;;31.23;;
25905;SDS011;13713;52.552;13.204;2024-03-08T00:27:09;51.95;;;30.70;;
25905;SDS011;13713;52.552;13.204;2024-03-08T00:29:36;56.92;;;33.00;;
25905;SDS011;13713;52.552;13.204;2024-03-08T00:32:04;54.80;;;32.28;;
25905;SDS011;13713;52.552;13.204;2024-03-08T00:34:30;52.80;;;31.20;;
25905;SDS011;13713;52.552;13.204;2024-03-08T00:36:57;56.28;;;33.22;;
25905;SDS011;13713;52.552;13.204;2024-03-08T00:39:23;54.17;;;32.22;;
25905;SDS011;13713;52.552;13.204;2024-03-08T00:41:50;52.83;;;32.08;;
25905;SDS011;13713;52.552;13.204;2024-03-08T00:44:16;54.65;;;32.22;;
25905;SDS011;13713;52.552;13.204;2024-03-08T00:46:42;55.40;;;32.05;;
25905;SDS011;13713;52.552;13.204;2024-03-08T00:49:08;57.17;;;32.60;;
25905;SDS011;13713;52.552;13.204;2024-03-08T00:51:34;55.05;;;32.60;;
25905;SDS011;13713;52.552;13.204;2024-03-08T00:54:01;55.08;;;32.67;;
25905;SDS011;13713;52.552;13.204;2024-03-08T00:56:26;51.75;;;31.00;;
25905;SDS011;13713;52.552;13.204;2024-03-08T00:58:52;56.28;;;32.38;;
25905;SDS011;13713;52.552;13.204;2024-03-08T01:01:19;53.70;;;31.77;;
25905;SDS011;13713;52.552;13.204;2024-03-08T01:03:44;54.67;;;31.45;;
25905;SDS011;13713;52.552;13.204;2024-03-08T01:06:10;58.85;;;33.53;;
25905;SDS011;13713;52.552;13.204;2024-03-08T01:08:37;52.92;;;33.00;;
25905;SDS011;13713;52.552;13.204;2024-03-08T01:11:06;57.65;;;32.75;;
25905;SDS011;13713;52.552;13.204;2024-03-08T01:13:32;55.15;;;31.60;;
25905;SDS011;13713;52.552;13.204;2024-03-08T01:16:01;54.60;;;32.72;;
25905;SDS011;13713;52.552;13.204;2024-03-08T01:18:27;58.15;;;33.95;;
25905;SDS011;13713;52.552;13.204;2024-03-08T01:20:52;56.25;;;33.72;;
25905;SDS011;13713;52.552;13.204;2024-03-08T01:23:18;57.42;;;34.55;;
25905;SDS011;13713;52.552;13.204;2024-03-08T01:25:44;55.95;;;32.72;;
25905;SDS011;13713;52.552;13.204;2024-03-08T01:28:10;55.70;;;32.75;;
25905;SDS011;13713;52.552;13.204;2024-03-08T01:30:35;55.15;;;32.88;;
25905;SDS011;13713;52.552;13.204;2024-03-08T01:33:02;56.13;;;32.17;;
25905;SDS011;13713;52.552;13.204;2024-03-08T01:35:28;58.88;;;34.05;;
25905;SDS011;13713;52.552;13.204;2024-03-08T01:37:54;54.08;;;32.22;;
25905;SDS011;13713;52.552;13.204;2024-03-08T01:40:20;55.35;;;32.17;;
25905;SDS011;13713;52.552;13.204;2024-03-08T01:42:46;57.58;;;33.50;;
25905;SDS011;13713;52.552;13.204;2024-03-08T01:45:13;58.10;;;33.00;;
25905;SDS011;13713;52.552;13.204;2024-03-08T01:47:39;54.83;;;32.00;;
25905;SDS011;13713;52.552;13.204;2024-03-08T01:50:05;55.20;;;33.08;;
25905;SDS011;13713;52.552;13.204;2024-03-08T01:52:34;54.72;;;32.97;;
25905;SDS011;13713;52.552;13.204;2024-03-08T01:55:01;57.67;;;33.53;;
25905;SDS011;13713;52.552;13.204;2024-03-08T01:57:28;59.90;;;33.58;;
25905;SDS011;13713;52.552;13.204;2024-03-08T01:59:58;56.15;;;32.53;;
25905;SDS011;13713;52.552;13.204;2024-03-08T02:02:32;60.95;;;33.63;;
25905;SDS011;13713;52.552;13.204;2024-03-08T02:05:00;55.33;;;32.17;;
25905;SDS011;13713;52.552;13.204;2024-03-08T02:07:26;52.63;;;33.05;;
25905;SDS011;13713;52.552;13.204;2024-03-08T02:09:52;55.65;;;33.35;;
25905;SDS011;13713;52.552;13.204;2024-03-08T02:12:18;54.92;;;32.58;;
25905;SDS011;13713;52.552;13.204;2024-03-08T02:14:48;62.95;;;34.60;;
25905;SDS011;13713;52.552;13.204;2024-03-08T02:17:14;57.47;;;32.55;;
25905;SDS011;13713;52.552;13.204;2024-03-08T02:19:39;55.15;;;32.55;;
25905;SDS011;13713;52.552;13.204;2024-03-08T02:22:05;54.90;;;32.50;;
25905;SDS011;13713;52.552;13.204;2024-03-08T02:24:32;56.85;;;33.92;;
25905;SDS011;13713;52.552;13.204;2024-03-08T02:26:58;57.88;;;32.90;;
25905;SDS011;13713;52.552;13.204;2024-03-08T02:29:24;56.45;;;33.60;;
25905;SDS011;13713;52.552;13.204;2024-03-08T02:31:53;58.08;;;33.22;;
25905;SDS011;13713;52.552;13.204;2024-03-08T02:34:20;56.03;;;32.22;;
25905;SDS011;13713;52.552;13.204;2024-03-08T02:36:46;56.25;;;32.83;;
25905;SDS011;13713;52.552;13.204;2024-03-08T02:39:12;59.05;;;34.10;;
25905;SDS011;13713;52.552;13.204;2024-03-08T02:41:38;58.58;;;32.25;;
25905;SDS011;13713;52.552;13.204;2024-03-08T02:44:03;62.22;;;35.22;;
25905;SDS011;13713;52.552;13.204;2024-03-08T02:46:29;58.53;;;34.38;;
25905;SDS011;13713;52.552;13.204;2024-03-08T02:48:55;58.30;;;34.10;;
25905;SDS011;13713;52.552;13.204;2024-03-08T02:51:21;53.15;;;31.33;;
25905;SDS011;13713;52.552;13.204;2024-03-08T02:53:47;56.78;;;33.55;;
25905;SDS011;13713;52.552;13.204;2024-03-08T02:56:16;58.80;;;33.75;;
25905;SDS011;13713;52.552;13.204;2024-03-08T02:58:43;61.10;;;35.42;;
25905;SDS011;13713;52.552;13.204;2024-03-08T03:01:14;57.83;;;33.35;;
25905;SDS011;13713;52.552;13.204;2024-03-08T03:03:41;60.42;;;34.13;;
25905;SDS011;13713;52.552;13.204;2024-03-08T03:06:07;59.30;;;33.35;;
25905;SDS011;13713;52.552;13.204;2024-03-08T03:08:33;58.10;;;33.75;;
25905;SDS011;13713;52.552;13.204;2024-03-08T03:10:59;57.35;;;33.67;;
25905;SDS011;13713;52.552;13.204;2024-03-08T03:13:24;56.22;;;32.35;;
25905;SDS011;13713;52.552;13.204;2024-03-08T03:15:50;60.08;;;34.78;;
25905;SDS011;13713;52.552;13.204;2024-03-08T03:18:16;57.17;;;32.72;;
25905;SDS011;13713;52.552;13.204;2024-03-08T03:20:46;61.42;;;33.22;;
25905;SDS011;13713;52.552;13.204;2024-03-08T03:23:12;57.95;;;33.22;;
25905;SDS011;13713;52.552;13.204;2024-03-08T03:25:39;58.85;;;33.95;;
25905;SDS011;13713;52.552;13.204;2024-03-08T03:28:06;60.38;;;34.30;;
25905;SDS011;13713;52.552;13.204;2024-03-08T03:30:32;62.58;;;34.75;;
25905;SDS011;13713;52.552;13.204;2024-03-08T03:33:01;59.60;;;34.38;;
25905;SDS011;13713;52.552;13.204;2024-03-08T03:35:31;58.33;;;32.63;;
25905;SDS011;13713;52.552;13.204;2024-03-08T03:37:58;58.45;;;32.58;;
25905;SDS011;13713;52.552;13.204;2024-03-08T03:40:34;61.05;;;33.92;;
25905;SDS011;13713;52.552;13.204;2024-03-08T03:43:00;59.35;;;33.22;;
25905;SDS011;13713;52.552;13.204;2024-03-08T03:45:27;63.28;;;33.95;;
25905;SDS011;13713;52.552;13.204;2024-03-08T03:47:53;57.28;;;33.33;;
25905;SDS011;13713;52.552;13.204;2024-03-08T03:50:20;61.00;;;35.20;;
25905;SDS011;13713;52.552;13.204;2024-03-08T03:52:46;57.08;;;32.67;;
25905;SDS011;13713;52.552;13.204;2024-03-08T03:55:13;56.35;;;33.63;;
25905;SDS011;13713;52.552;13.204;2024-03-08T03:57:39;58.88;;;34.13;;
25905;SDS011;13713;52.552;13.204;2024-03-08T04:00:06;59.28;;;34.00;;
25905;SDS011;13713;52.552;13.204;2024-03-08T04:02:39;63.13;;;34.03;;
25905;SDS011;13713;52.552;13.204;2024-03-08T04:05:09;57.63;;;33.33;;
25905;SDS011;13713;52.552;13.204;2024-03-08T04:07:36;61.25;;;33.30;;
25905;SDS011;13713;52.552;13.204;2024-03-08T04:10:02;63.35;;;35.60;;
25905;SDS011;13713;52.552;13.204;2024-03-08T04:12:29;61.55;;;33.90;;
25905;SDS011;13713;52.552;13.204;2024-03-08T04:14:55;63.92;;;35.80;;
25905;SDS011;13713;52.552;13.204;2024-03-08T04:17:22;61.85;;;35.38;;
25905;SDS011;13713;52.552;13.204;2024-03-08T04:19:49;67.07;;;36.53;;
25905;SDS011;13713;52.552;13.204;2024-03-08T04:22:15;67.40;;;37.30;;
25905;SDS011;13713;52.552;13.204;2024-03-08T04:24:43;64.30;;;38.10;;
25905;SDS011;13713;52.552;13.204;2024-03-08T04:27:09;63.22;;;37.00;;
25905;SDS011;13713;52.552;13.204;2024-03-08T04:29:35;62.92;;;37.83;;
25905;SDS011;13713;52.552;13.204;2024-03-08T04:32:04;62.67;;;37.20;;
25905;SDS011;13713;52.552;13.204;2024-03-08T04:34:32;65.07;;;37.50;;
25905;SDS011;13713;52.552;13.204;2024-03-08T04:37:02;66.93;;;38.88;;
25905;SDS011;13713;52.552;13.204;2024-03-08T04:39:29;65.88;;;36.60;;
25905;SDS011;13713;52.552;13.204;2024-03-08T04:42:01;68.25;;;40.15;;
25905;SDS011;13713;52.552;13.204;2024-03-08T04:44:35;67.55;;;37.17;;
25905;SDS011;13713;52.552;13.204;2024-03-08T04:47:03;74.85;;;40.25;;
25905;SDS011;13713;52.552;13.204;2024-03-08T04:49:31;67.20;;;38.75;;
25905;SDS011;13713;52.552;13.204;2024-03-08T04:52:00;67.32;;;37.47;;
25905;SDS011;13713;52.552;13.204;2024-03-08T04:54:29;69.05;;;38.97;;
25905;SDS011;13713;52.552;13.204;2024-03-08T04:56:55;67.30;;;40.85;;
25905;SDS011;13713;52.552;13.204;2024-03-08T04:59:22;67.68;;;39.97;;
25905;SDS011;13713;52.552;13.204;2024-03-08T05:01:47;70.03;;;41.55;;
25905;SDS011;13713;52.552;13.204;2024-03-08T05:04:13;70.88;;;42.03;;
25905;SDS011;13713;52.552;13.204;2024-03-08T05:06:40;70.53;;;41.15;;
25905;SDS011;13713;52.552;13.204;2024-03-08T05:09:06;68.03;;;40.15;;
25905;SDS011;13713;52.552;13.204;2024-03-08T05:11:44;71.97;;;40.75;;
25905;SDS011;13713;52.552;13.204;2024-03-08T05:14:11;71.75;;;41.47;;
25905;SDS011;13713;52.552;13.204;2024-03-08T05:16:48;73.70;;;42.58;;
25905;SDS011;13713;52.552;13.204;2024-03-08T05:19:17;68.55;;;41.88;;
25905;SDS011;13713;52.552;13.204;2024-03-08T05:21:45;73.22;;;43.97;;
25905;SDS011;13713;52.552;13.204;2024-03-08T05:24:11;71.13;;;41.47;;
25905;SDS011;13713;52.552;13.204;2024-03-08T05:26:37;75.85;;;44.45;;
25905;SDS011;13713;52.552;13.204;2024-03-08T05:29:03;72.07;;;42.25;;
25905;SDS011;13713;52.552;13.204;2024-03-08T05:31:29;73.05;;;42.58;;
25905;SDS011;13713;52.552;13.204;2024-03-08T05:34:02;69.45;;;40.80;;
25905;SDS011;13713;52.552;13.204;2024-03-08T05:36:28;72.85;;;42.72;;
25905;SDS011;13713;52.552;13.204;2024-03-08T05:38:53;74.50;;;42.13;;
25905;SDS011;13713;52.552;13.204;2024-03-08T05:41:19;75.10;;;43.63;;
25905;SDS011;13713;52.552;13.204;2024-03-08T05:43:45;73.85;;;44.17;;
25905;SDS011;13713;52.552;13.204;2024-03-08T05:46:11;73.50;;;43.70;;
25905;SDS011;13713;52.552;13.204;2024-03-08T05:48:40;74.53;;;44.85;;
25905;SDS011;13713;52.552;13.204;2024-03-08T05:51:06;72.25;;;42.83;;
25905;SDS011;13713;52.552;13.204;2024-03-08T05:53:31;74.75;;;43.53;;
25905;SDS011;13713;52.552;13.204;2024-03-08T05:55:57;81.57;;;45.55;;
25905;SDS011;13713;52.552;13.204;2024-03-08T05:58:24;75.80;;;45.03;;
25905;SDS011;13713;52.552;13.204;2024-03-08T06:00:50;76.18;;;44.50;;
25905;SDS011;13713;52.552;13.204;2024-03-08T06:03:16;73.43;;;44.38;;
25905;SDS011;13713;52.552;13.204;2024-03-08T06:05:41;75.15;;;46.33;;
25905;SDS011;13713;52.552;13.204;2024-03-08T06:08:07;77.90;;;44.92;;
25905;SDS011;13713;52.552;13.204;2024-03-08T06:10:33;70.80;;;41.92;;
25905;SDS011;13713;52.552;13.204;2024-03-08T06:12:59;85.50;;;48.75;;
25905;SDS011;13713;52.552;13.204;2024-03-08T06:15:26;72.35;;;40.95;;
25905;SDS011;13713;52.552;13.204;2024-03-08T06:17:52;80.20;;;45.72;;
25905;SDS011;13713;52.552;13.204;2024-03-08T06:20:18;77.97;;;45.55;;
25905;SDS011;13713;52.552;13.204;2024-03-08T06:22:44;73.55;;;42.72;;
25905;SDS011;13713;52.552;13.204;2024-03-08T06:25:13;75.28;;;42.88;;
25905;SDS011;13713;52.552;13.204;2024-03-08T06:27:40;70.65;;;41.85;;
25905;SDS011;13713;52.552;13.204;2024-03-08T06:30:07;74.63;;;42.25;;
25905;SDS011;13713;52.552;13.204;2024-03-08T06:32:35;73.72;;;42.20;;
25905;SDS011;13713;52.552;13.204;2024-03-08T06:35:04;79.50;;;46.15;;
25905;SDS011;13713;52.552;13.204;2024-03-08T06:37:35;75.55;;;45.40;;
25905;SDS011;13713;52.552;13.204;2024-03-08T06:40:01;76.13;;;43.85;;
25905;SDS011;13713;52.552;13.204;2024-03-08T06:42:33;76.50;;;45.47;;
25905;SDS011;13713;52.552;13.204;2024-03-08T06:45:00;76.63;;;45.10;;
25905;SDS011;13713;52.552;13.204;2024-03-08T06:47:30;75.15;;;44.58;;
25905;SDS011;13713;52.552;13.204;2024-03-08T06:49:57;78.35;;;47.83;;
25905;SDS011;13713;52.552;13.204;2024-03-08T06:52:22;78.97;;;47.17;;
25905;SDS011;13713;52.552;13.204;2024-03-08T06:54:48;73.93;;;44.10;;
25905;SDS011;13713;52.552;13.204;2024-03-08T06:57:14;72.00;;;43.20;;
25905;SDS011;13713;52.552;13.204;2024-03-08T06:59:42;73.80;;;42.90;;
25905;SDS011;13713;52.552;13.204;2024-03-08T07:02:07;72.40;;;44.30;;
25905;SDS011;13713;52.552;13.204;2024-03-08T07:04:34;71.53;;;42.95;;
25905;SDS011;13713;52.552;13.204;2024-03-08T07:07:06;68.75;;;42.10;;
25905;SDS011;13713;52.552;13.204;2024-03-08T07:09:35;70.78;;;42.55;;
25905;SDS011;13713;52.552;13.204;2024-03-08T07:12:01;68.35;;;41.58;;
25905;SDS011;13713;52.552;13.204;2024-03-08T07:14:27;75.78;;;43.13;;
25905;SDS011;13713;52.552;13.204;2024-03-08T07:16:54;72.55;;;43.22;;
25905;SDS011;13713;52.552;13.204;2024-03-08T07:19:19;71.10;;;42.83;;
25905;SDS011;13713;52.552;13.204;2024-03-08T07:21:46;72.30;;;42.40;;
25905;SDS011;13713;52.552;13.204;2024-03-08T07:24:12;77.72;;;43.85;;
25905;SDS011;13713;52.552;13.204;2024-03-08T07:26:57;73.20;;;43.40;;
25905;SDS011;13713;52.552;13.204;2024-03-08T07:29:23;74.95;;;43.13;;
25905;SDS011;13713;52.552;13.204;2024-03-08T07:31:48;74.43;;;43.45;;
25905;SDS011;13713;52.552;13.204;2024-03-08T07:34:33;67.93;;;43.05;;
25905;SDS011;13713;52.552;13.204;2024-03-08T07:36:58;72.35;;;44.22;;
25905;SDS011;13713;52.552;13.204;2024-03-08T07:39:24;73.20;;;41.90;;
25905;SDS011;13713;52.552;13.204;2024-03-08T07:41:50;76.55;;;44.55;;
25905;SDS011;13713;52.552;13.204;2024-03-08T07:44:18;73.82;;;42.95;;
25905;SDS011;13713;52.552;13.204;2024-03-08T07:46:44;72.43;;;44.22;;
25905;SDS011;13713;52.552;13.204;2024-03-08T07:49:10;77.72;;;44.05;;
25905;SDS011;13713;52.552;13.204;2024-03-08T07:51:37;77.00;;;44.38;;
25905;SDS011;13713;52.552;13.204;2024-03-08T07:54:03;75.35;;;44.22;;
25905;SDS011;13713;52.552;13.204;2024-03-08T07:56:30;74.10;;;43.85;;
25905;SDS011;13713;52.552;13.204;2024-03-08T07:58:56;70.82;;;40.90;;
25905;SDS011;13713;52.552;13.204;2024-03-08T08:01:22;74.18;;;43.00;;
25905;SDS011;13713;52.552;13.204;2024-03-08T08:03:47;71.00;;;41.97;;
25905;SDS011;13713;52.552;13.204;2024-03-08T08:06:16;76.57;;;44.70;;
25905;SDS011;13713;52.552;13.204;2024-03-08T08:08:42;78.03;;;43.17;;
25905;SDS011;13713;52.552;13.204;2024-03-08T08:11:08;72.75;;;42.47;;
25905;SDS011;13713;52.552;13.204;2024-03-08T08:13:34;71.47;;;42.22;;
25905;SDS011;13713;52.552;13.204;2024-03-08T08:16:01;74.72;;;44.20;;
25905;SDS011;13713;52.552;13.204;2024-03-08T08:18:29;74.38;;;44.00;;
25905;SDS011;13713;52.552;13.204;2024-03-08T08:20:55;72.28;;;44.15;;
25905;SDS011;13713;52.552;13.204;2024-03-08T08:23:21;74.05;;;43.50;;
25905;SDS011;13713;52.552;13.204;2024-03-08T08:25:47;71.78;;;42.97;;
25905;SDS011;13713;52.552;13.204;2024-03-08T08:28:16;70.78;;;42.10;;
25905;SDS011;13713;52.552;13.204;2024-03-08T08:30:43;74.90;;;43.20;;
25905;SDS011;13713;52.552;13.204;2024-03-08T08:33:09;79.57;;;45.25;;
25905;SDS011;13713;52.552;13.204;2024-03-08T08:35:36;78.20;;;45.22;;
25905;SDS011;13713;52.552;13.204;2024-03-08T08:38:03;74.97;;;45.50;;
25905;SDS011;13713;52.552;13.204;2024-03-08T08:40:35;82.35;;;47.70;;
25905;SDS011;13713;52.552;13.204;2024-03-08T08:43:03;78.43;;;45.13;;
25905;SDS011;13713;52.552;13.204;2024-03-08T08:45:30;83.43;;;49.08;;
25905;SDS011;13713;52.552;13.204;2024-03-08T08:47:56;85.30;;;48.80;;
25905;SDS011;13713;52.552;13.204;2024-03-08T08:50:24;79.80;;;47.75;;
25905;SDS011;13713;52.552;13.204;2024-03-08T08:52:53;83.30;;;48.15;;
25905;SDS011;13713;52.552;13.204;2024-03-08T08:55:20;87.85;;;50.63;;
25905;SDS011;13713;52.552;13.204;2024-03-08T08:57:46;85.75;;;51.08;;
25905;SDS011;13713;52.552;13.204;2024-03-08T09:00:17;88.90;;;51.05;;
25905;SDS011;13713;52.552;13.204;2024-03-08T09:02:45;87.28;;;50.33;;
25905;SDS011;13713;52.552;13.204;2024-03-08T09:05:12;87.85;;;51.42;;
25905;SDS011;13713;52.552;13.204;2024-03-08T09:07:41;81.85;;;48.25;;
25905;SDS011;13713;52.552;13.204;2024-03-08T09:10:10;83.68;;;48.67;;
25905;SDS011;13713;52.552;13.204;2024-03-08T09:12:38;83.32;;;49.63;;
25905;SDS011;13713;52.552;13.204;2024-03-08T09:15:04;83.55;;;48.10;;
25905;SDS011;13713;52.552;13.204;2024-03-08T09:17:33;82.55;;;50.28;;
25905;SDS011;13713;52.552;13.204;2024-03-08T09:19:59;85.15;;;50.40;;
25905;SDS011;13713;52.552;13.204;2024-03-08T09:22:25;82.60;;;48.88;;
25905;SDS011;13713;52.552;13.204;2024-03-08T09:24:51;80.20;;;49.30;;
25905;SDS011;13713;52.552;13.204;2024-03-08T09:27:17;86.68;;;51.97;;
25905;SDS011;13713;52.552;13.204;2024-03-08T09:29:43;87.30;;;51.30;;
25905;SDS011;13713;52.552;13.204;2024-03-08T09:32:09;87.10;;;52.65;;
25905;SDS011;13713;52.552;13.204;2024-03-08T09:34:37;85.57;;;52.03;;
25905;SDS011;13713;52.552;13.204;2024-03-08T09:37:03;92.35;;;53.25;;
25905;SDS011;13713;52.552;13.204;2024-03-08T09:39:29;87.45;;;53.35;;
25905;SDS011;13713;52.552;13.204;2024-03-08T09:41:55;85.40;;;51.35;;
25905;SDS011;13713;52.552;13.204;2024-03-08T09:44:21;87.63;;;52.33;;
25905;SDS011;13713;52.552;13.204;2024-03-08T09:46:48;92.70;;;54.30;;
25905;SDS011;13713;52.552;13.204;2024-03-08T09:49:18;88.78;;;53.35;;
25905;SDS011;13713;52.552;13.204;2024-03-08T09:51:44;92.65;;;55.13;;
25905;SDS011;13713;52.552;13.204;2024-03-08T09:54:11;92.68;;;53.95;;
25905;SDS011;13713;52.552;13.204;2024-03-08T09:56:39;93.00;;;54.90;;
25905;SDS011;13713;52.552;13.204;2024-03-08T09:59:09;92.47;;;54.90;;
25905;SDS011;13713;52.552;13.204;2024-03-08T10:01:48;92.43;;;54.58;;
25905;SDS011;13713;52.552;13.204;2024-03-08T10:04:14;92.82;;;55.33;;
25905;SDS011;13713;52.552;13.204;2024-03-08T10:06:41;87.88;;;53.05;;
25905;SDS011;13713;52.552;13.204;2024-03-08T10:09:09;98.00;;;57.85;;
25905;SDS011;13713;52.552;13.204;2024-03-08T10:11:35;92.13;;;52.00;;
25905;SDS011;13713;52.552;13.204;2024-03-08T10:14:01;96.82;;;55.85;;
25905;SDS011;13713;52.552;13.204;2024-03-08T10:16:27;94.43;;;53.92;;
25905;SDS011;13713;52.552;13.204;2024-03-08T10:18:54;89.65;;;52.80;;
25905;SDS011;13713;52.552;13.204;2024-03-08T10:21:22;92.30;;;55.40;;
25905;SDS011;13713;52.552;13.204;2024-03-08T10:23:48;89.50;;;52.13;;
25905;SDS011;13713;52.552;13.204;2024-03-08T10:26:14;86.25;;;51.80;;
25905;SDS011;13713;52.552;13.204;2024-03-08T10:28:42;91.60;;;55.47;;
25905;SDS011;13713;52.552;13.204;2024-03-08T10:31:09;87.00;;;52.47;;
25905;SDS011;13713;52.552;13.204;2024-03-08T10:33:35;93.93;;;53.53;;
25905;SDS011;13713;52.552;13.204;2024-03-08T10:36:03;90.25;;;52.22;;
25905;SDS011;13713;52.552;13.204;2024-03-08T10:38:38;96.15;;;54.13;;
25905;SDS011;13713;52.552;13.204;2024-03-08T10:41:05;93.38;;;54.10;;
25905;SDS011;13713;52.552;13.204;2024-03-08T10:43:52;91.55;;;53.50;;
25905;SDS011;13713;52.552;13.204;2024-03-08T10:49:30;89.53;;;53.17;;
25905;SDS011;13713;52.552;13.204;2024-03-08T10:52:01;87.38;;;52.22;;
25905;SDS011;13713;52.552;13.204;2024-03-08T10:54:30;91.85;;;54.28;;
25905;SDS011;13713;52.552;13.204;2024-03-08T10:56:58;93.53;;;53.58;;
25905;SDS011;13713;52.552;13.204;2024-03-08T10:59:26;88.32;;;52.38;;
25905;SDS011;13713;52.552;13.204;2024-03-08T11:01:53;91.13;;;52.45;;
25905;SDS011;13713;52.552;13.204;2024-03-08T11:04:19;89.57;;;53.17;;
25905;SDS011;13713;52.552;13.204;2024-03-08T11:06:48;89.75;;;52.60;;
25905;SDS011;13713;52.552;13.204;2024-03-08T11:09:31;87.68;;;52.00;;
25905;SDS011;13713;52.552;13.204;2024-03-08T11:12:23;89.18;;;51.90;;
25905;SDS011;13713;52.552;13.204;2024-03-08T11:15:01;88.88;;;51.08;;
25905;SDS011;13713;52.552;13.204;2024-03-08T11:20:03;91.05;;;52.95;;
25905;SDS011;13713;52.552;13.204;2024-03-08T11:25:36;89.65;;;51.67;;
25905;SDS011;13713;52.552;13.204;2024-03-08T11:33:28;86.32;;;52.00;;
25905;SDS011;13713;52.552;13.204;2024-03-08T11:38:51;87.60;;;52.08;;
25905;SDS011;13713;52.552;13.204;2024-03-08T11:41:18;85.05;;;50.42;;
25905;SDS011;13713;52.552;13.204;2024-03-08T11:43:46;88.35;;;52.03;;
25905;SDS011;13713;52.552;13.204;2024-03-08T11:46:13;88.85;;;51.13;;
25905;SDS011;13713;52.552;13.204;2024-03-08T11:48:41;87.82;;;51.13;;
25905;SDS011;13713;52.552;13.204;2024-03-08T11:51:14;87.22;;;50.05;;
25905;SDS011;13713;52.552;13.204;2024-03-08T11:53:40;85.45;;;49.50;;
25905;SDS011;13713;52.552;13.204;2024-03-08T11:58:32;88.72;;;51.08;;
25905;SDS011;13713;52.552;13.204;2024-03-08T12:03:31;84.30;;;50.83;;
25905;SDS011;13713;52.552;13.204;2024-03-08T12:06:00;84.35;;;48.67;;
25905;SDS011;13713;52.552;13.204;2024-03-08T12:08:27;81.95;;;48.95;;
25905;SDS011;13713;52.552;13.204;2024-03-08T12:10:57;88.90;;;50.80;;
25905;SDS011;13713;52.552;13.204;2024-03-08T12:13:33;83.70;;;50.35;;
25905;SDS011;13713;52.552;13.204;2024-03-08T12:16:00;82.60;;;48.78;;
25905;SDS011;13713;52.552;13.204;2024-03-08T12:18:33;81.50;;;48.30;;
25905;SDS011;13713;52.552;13.204;2024-03-08T12:23:33;79.47;;;47.53;;
25905;SDS011;13713;52.552;13.204;2024-03-08T12:28:44;83.05;;;48.92;;
25905;SDS011;13713;52.552;13.204;2024-03-08T12:31:14;80.47;;;48.75;;
25905;SDS011;13713;52.552;13.204;2024-03-08T12:36:15;79.43;;;46.80;;
25905;SDS011;13713;52.552;13.204;2024-03-08T12:38:45;77.00;;;47.40;;
25905;SDS011;13713;52.552;13.204;2024-03-08T12:41:15;79.38;;;46.97;;
25905;SDS011;13713;52.552;13.204;2024-03-08T12:43:42;82.22;;;48.13;;
25905;SDS011;13713;52.552;13.204;2024-03-08T12:46:18;81.82;;;48.15;;
25905;SDS011;13713;52.552;13.204;2024-03-08T12:48:45;84.28;;;49.45;;
25905;SDS011;13713;52.552;13.204;2024-03-08T12:51:15;78.35;;;46.60;;
25905;SDS011;13713;52.552;13.204;2024-03-08T12:53:43;82.57;;;48.47;;
25905;SDS011;13713;52.552;13.204;2024-03-08T12:56:19;79.95;;;48.00;;
25905;SDS011;13713;52.552;13.204;2024-03-08T12:58:53;81.22;;;48.22;;
25905;SDS011;13713;52.552;13.204;2024-03-08T13:01:19;79.72;;;47.55;;
25905;SDS011;13713;52.552;13.204;2024-03-08T13:03:45;78.55;;;46.65;;
25905;SDS011;13713;52.552;13.204;2024-03-08T13:06:11;77.95;;;47.15;;
25905;SDS011;13713;52.552;13.204;2024-03-08T13:08:37;83.72;;;48.60;;
25905;SDS011;13713;52.552;13.204;2024-03-08T13:11:09;79.35;;;47.38;;
25905;SDS011;13713;52.552;13.204;2024-03-08T13:13:42;77.47;;;47.05;;
25905;SDS011;13713;52.552;13.204;2024-03-08T13:16:09;81.90;;;47.80;;
25905;SDS011;13713;52.552;13.204;2024-03-08T13:18:36;83.30;;;47.83;;
25905;SDS011;13713;52.552;13.204;2024-03-08T13:21:02;80.78;;;47.05;;
25905;SDS011;13713;52.552;13.204;2024-03-08T13:23:32;74.57;;;46.33;;
25905;SDS011;13713;52.552;13.204;2024-03-08T13:25:58;74.82;;;45.03;;
25905;SDS011;13713;52.552;13.204;2024-03-08T13:28:25;76.43;;;44.85;;
25905;SDS011;13713;52.552;13.204;2024-03-08T13:30:55;77.80;;;45.35;;
25905;SDS011;13713;52.552;13.204;2024-03-08T13:33:23;77.43;;;45.35;;
25905;SDS011;13713;52.552;13.204;2024-03-08T13:35:49;83.45;;;47.42;;
25905;SDS011;13713;52.552;13.204;2024-03-08T13:38:16;76.78;;;46.78;;
25905;SDS011;13713;52.552;13.204;2024-03-08T13:40:45;75.95;;;46.38;;
25905;SDS011;13713;52.552;13.204;2024-03-08T13:43:14;81.28;;;46.55;;
25905;SDS011;13713;52.552;13.204;2024-03-08T13:45:39;76.78;;;46.40;;
25905;SDS011;13713;52.552;13.204;2024-03-08T13:48:07;77.50;;;46.85;;
25905;SDS011;13713;52.552;13.204;2024-03-08T13:50:37;77.35;;;45.30;;
25905;SDS011;13713;52.552;13.204;2024-03-08T13:53:04;78.72;;;46.78;;
25905;SDS011;13713;52.552;13.204;2024-03-08T13:55:30;77.32;;;46.70;;
25905;SDS011;13713;52.552;13.204;2024-03-08T13:57:56;78.80;;;46.35;;
25905;SDS011;13713;52.552;13.204;2024-03-08T14:00:22;77.63;;;46.47;;
25905;SDS011;13713;52.552;13.204;2024-03-08T14:02:50;77.22;;;46.38;;
25905;SDS011;13713;52.552;13.204;2024-03-08T14:05:16;77.32;;;46.70;;
25905;SDS011;13713;52.552;13.204;2024-03-08T14:07:45;79.25;;;46.15;;
25905;SDS011;13713;52.552;13.204;2024-03-08T14:10:14;76.25;;;45.97;;
25905;SDS011;13713;52.552;13.204;2024-03-08T14:12:40;76.70;;;44.78;;
25905;SDS011;13713;52.552;13.204;2024-03-08T14:15:08;80.78;;;48.42;;
25905;SDS011;13713;52.552;13.204;2024-03-08T14:17:35;78.25;;;46.08;;
25905;SDS011;13713;52.552;13.204;2024-03-08T14:20:01;77.18;;;46.63;;
25905;SDS011;13713;52.552;13.204;2024-03-08T14:22:27;77.22;;;46.30;;
25905;SDS011;13713;52.552;13.204;2024-03-08T14:24:52;78.05;;;46.85;;
25905;SDS011;13713;52.552;13.204;2024-03-08T14:27:20;83.07;;;47.90;;
25905;SDS011;13713;52.552;13.204;2024-03-08T14:29:47;74.35;;;45.70;;
25905;SDS011;13713;52.552;13.204;2024-03-08T14:32:13;75.60;;;46.83;;
25905;SDS011;13713;52.552;13.204;2024-03-08T14:34:40;77.78;;;46.65;;
25905;SDS011;13713;52.552;13.204;2024-03-08T14:37:05;77.45;;;46.20;;
25905;SDS011;13713;52.552;13.204;2024-03-08T14:39:36;82.32;;;46.58;;